Time;durP1;ratioP1;P1;durP2;ratioP2;P2;SDS_P1;SDS_P2;PMS_P1;PMS_P2;Temp;Humidity;BMP_temperature;BMP_pressure;BME280_temperature;BME280_humidity;BME280_pressure;Samples;Min_cycle;Max_cycle;Signal;HPM_P1;HPM_P2
2024/01/25 00:02:20;;;;;;;0.63;0.50;;;;;;;2.73;100.00;99361.38;5110787;28;20202;-57
2024/01/25 00:04:46;;;;;;;1.30;1.20;;;;;;;2.78;100.00;99351.94;5110634;28;20205;-57
2024/01/25 00:07:15;;;;;;;2.63;1.00;;;;;;;2.82;100.00;99361.06;5110659;28;20616;-57
2024/01/25 00:09:41;;;;;;;1.13;1.00;;;;;;;3.02;100.00;99369.59;5110811;28;20202;-57
2024/01/25 00:12:08;;;;;;;1.20;0.70;;;;;;;3.09;100.00;99383.69;5110419;28;20205;-57
2024/01/25 00:14:35;;;;;;;1.13;0.80;;;;;;;3.13;100.00;99380.97;5110488;28;20236;-58
2024/01/25 00:17:02;;;;;;;1.03;0.80;;;;;;;3.15;100.00;99381.75;5110387;28;20204;-58
2024/01/25 00:19:28;;;;;;;0.63;0.60;;;;;;;3.15;100.00;99380.91;5110336;28;20693;-57
2024/01/25 00:21:55;;;;;;;0.90;0.70;;;;;;;3.14;100.00;99372.53;5110517;28;20197;-58
2024/01/25 00:24:23;;;;;;;0.63;0.60;;;;;;;3.24;100.00;99357.84;5110560;28;20201;-57
2024/01/25 00:26:50;;;;;;;1.07;0.97;;;;;;;3.07;100.00;99363.50;5110392;28;20216;-57
2024/01/25 00:29:17;;;;;;;1.03;0.80;;;;;;;3.08;100.00;99357.56;5110283;28;20197;-58
2024/01/25 00:31:44;;;;;;;2.40;1.70;;;;;;;3.01;100.00;99351.09;5110118;28;20197;-58
2024/01/25 00:34:11;;;;;;;1.20;1.03;;;;;;;3.05;100.00;99351.81;5109989;28;20268;-57
2024/01/25 00:36:38;;;;;;;0.80;0.80;;;;;;;2.96;100.00;99347.94;5110052;28;20201;-57
2024/01/25 00:39:06;;;;;;;1.00;0.90;;;;;;;2.94;100.00;99337.91;5109828;28;20206;-58
2024/01/25 00:41:35;;;;;;;1.30;1.00;;;;;;;2.92;100.00;99351.44;5110076;28;20723;-58
2024/01/25 00:44:03;;;;;;;0.50;0.50;;;;;;;2.89;100.00;99349.88;5109825;28;20197;-57
2024/01/25 00:46:30;;;;;;;0.97;0.67;;;;;;;2.90;100.00;99354.03;5109763;28;20615;-58
2024/01/25 00:48:57;;;;;;;1.40;1.30;;;;;;;2.84;100.00;99349.19;5109759;28;20202;-57
2024/01/25 00:51:24;;;;;;;1.20;0.97;;;;;;;2.88;100.00;99345.69;5109913;28;20201;-57
2024/01/25 00:53:52;;;;;;;1.53;0.90;;;;;;;2.79;100.00;99330.84;5109677;28;20197;-57
2024/01/25 00:56:19;;;;;;;1.00;1.00;;;;;;;2.72;100.00;99329.44;5109695;28;20225;-58
2024/01/25 00:58:48;;;;;;;2.30;1.40;;;;;;;2.68;100.00;99322.88;5109630;28;20197;-57
2024/01/25 01:01:15;;;;;;;1.43;0.90;;;;;;;2.66;100.00;99330.50;5108855;28;20193;-58
2024/01/25 01:03:42;;;;;;;1.67;1.00;;;;;;;2.65;100.00;99333.91;5109800;28;20201;-58
2024/01/25 01:06:10;;;;;;;1.23;1.13;;;;;;;2.97;100.00;99328.53;5109381;28;20197;-57
2024/01/25 01:08:38;;;;;;;1.73;1.20;;;;;;;3.01;100.00;99317.47;5109379;28;20201;-58
2024/01/25 01:11:05;;;;;;;1.60;0.93;;;;;;;3.05;100.00;99321.50;5109374;28;20197;-58
2024/01/25 01:13:32;;;;;;;1.03;0.87;;;;;;;3.05;100.00;99326.56;5109302;28;20197;-58
2024/01/25 01:16:00;;;;;;;3.03;1.67;;;;;;;2.99;100.00;99331.84;5109355;28;20229;-58
2024/01/25 01:18:27;;;;;;;0.93;0.90;;;;;;;2.90;100.00;99330.47;5109476;28;20197;-58
2024/01/25 01:20:53;;;;;;;3.53;1.67;;;;;;;2.92;100.00;99316.91;5109234;28;20223;-58
2024/01/25 01:23:20;;;;;;;0.93;0.90;;;;;;;2.93;100.00;99307.63;5109179;28;20201;-58
2024/01/25 01:25:47;;;;;;;1.47;1.37;;;;;;;2.85;100.00;99307.09;5109227;28;20205;-58
2024/01/25 01:28:14;;;;;;;1.23;1.13;;;;;;;2.74;100.00;99307.50;5109542;28;20193;-58
2024/01/25 01:30:41;;;;;;;2.90;1.70;;;;;;;2.77;100.00;99297.28;5109380;28;20197;-58
2024/01/25 01:33:10;;;;;;;1.30;0.93;;;;;;;2.72;100.00;99301.69;5109015;28;20575;-58
2024/01/25 01:35:37;;;;;;;1.80;1.10;;;;;;;2.72;100.00;99299.16;5108964;28;20721;-58
2024/01/25 01:38:04;;;;;;;0.80;0.80;;;;;;;2.78;100.00;99298.94;5109280;28;20201;-57
2024/01/25 01:40:31;;;;;;;1.50;1.40;;;;;;;2.77;100.00;99301.53;5109221;28;20213;-58
2024/01/25 01:43:01;;;;;;;2.17;1.73;;;;;;;2.70;100.00;99300.91;5109209;28;20575;-58
2024/01/25 01:45:28;;;;;;;2.33;1.60;;;;;;;2.69;100.00;99294.22;5109207;28;20205;-58
2024/01/25 01:47:55;;;;;;;2.20;1.63;;;;;;;2.62;100.00;99302.91;5109277;28;20197;-58
2024/01/25 01:50:24;;;;;;;2.30;1.67;;;;;;;2.47;100.00;99295.00;5108804;28;20258;-58
2024/01/25 01:52:51;;;;;;;1.40;1.30;;;;;;;2.37;100.00;99293.69;5108968;28;20197;-58
2024/01/25 01:55:18;;;;;;;4.67;1.80;;;;;;;2.31;100.00;99293.09;5109024;28;20236;-58
2024/01/25 01:57:46;;;;;;;1.43;1.33;;;;;;;2.28;100.00;99294.00;5108708;28;20197;-58
2024/01/25 02:00:16;;;;;;;2.40;1.60;;;;;;;2.27;100.00;99279.75;5108870;28;20200;-57
2024/01/25 02:02:43;;;;;;;1.57;1.23;;;;;;;2.38;100.00;99290.25;5108788;28;20258;-57
2024/01/25 02:05:11;;;;;;;2.90;1.63;;;;;;;2.50;100.00;99294.06;5109076;28;20189;-58
2024/01/25 02:07:41;;;;;;;2.17;1.50;;;;;;;2.64;100.00;99288.50;5108944;28;20653;-58
2024/01/25 02:10:09;;;;;;;2.43;1.60;;;;;;;2.72;100.00;99284.00;5108756;28;20371;-58
2024/01/25 02:12:36;;;;;;;1.97;1.43;;;;;;;2.67;100.00;99280.81;5110903;28;20201;-58
2024/01/25 02:15:03;;;;;;;3.33;2.10;;;;;;;2.61;100.00;99270.97;5112941;28;20232;-58
2024/01/25 02:17:31;;;;;;;3.37;2.43;;;;;;;2.56;100.00;99271.16;5112726;28;20200;-58
2024/01/25 02:19:57;;;;;;;4.60;2.63;;;;;;;2.51;100.00;99279.75;5112986;28;20205;-58
2024/01/25 02:22:26;;;;;;;3.87;2.60;;;;;;;2.43;100.00;99273.28;5112970;28;20251;-58
2024/01/25 02:24:53;;;;;;;3.50;1.60;;;;;;;2.38;100.00;99275.13;5112669;28;20225;-57
2024/01/25 02:27:19;;;;;;;1.20;1.10;;;;;;;2.34;100.00;99288.75;5112568;28;20212;-58
2024/01/25 02:29:46;;;;;;;2.37;1.60;;;;;;;2.33;100.00;99281.22;5112471;28;20201;-58
2024/01/25 02:32:13;;;;;;;2.10;1.57;;;;;;;2.30;100.00;99272.09;5112741;28;20207;-58
2024/01/25 02:34:40;;;;;;;2.53;1.43;;;;;;;2.30;100.00;99282.16;5112290;28;20193;-58
2024/01/25 02:37:07;;;;;;;0.90;0.83;;;;;;;2.28;100.00;99273.81;5112488;28;20619;-58
2024/01/25 02:39:35;;;;;;;2.07;1.70;;;;;;;2.29;100.00;99272.94;5112367;28;20201;-58
2024/01/25 02:42:02;;;;;;;3.67;1.67;;;;;;;2.30;100.00;99276.28;5112145;28;20212;-57
2024/01/25 02:44:28;;;;;;;2.63;1.87;;;;;;;2.27;100.00;99267.16;5112365;28;20202;-58
2024/01/25 02:46:55;;;;;;;2.50;1.77;;;;;;;2.19;100.00;99264.88;5112817;28;20209;-58
2024/01/25 02:49:23;;;;;;;3.17;2.47;;;;;;;2.16;100.00;99261.66;5112235;28;20205;-58
2024/01/25 02:51:50;;;;;;;6.03;2.23;;;;;;;2.19;100.00;99253.97;5111929;28;20233;-57
2024/01/25 02:54:17;;;;;;;2.37;1.70;;;;;;;2.16;100.00;99254.91;5112242;28;20197;-58
2024/01/25 02:56:45;;;;;;;3.03;1.30;;;;;;;2.12;100.00;99250.00;5111881;28;20238;-58
2024/01/25 02:59:12;;;;;;;3.23;2.13;;;;;;;2.10;100.00;99246.75;5111982;28;20208;-57
2024/01/25 03:01:41;;;;;;;4.03;2.27;;;;;;;2.05;100.00;99244.38;5111833;28;20209;-57
2024/01/25 03:04:08;;;;;;;1.87;1.67;;;;;;;2.10;100.00;99246.75;5112072;28;20232;-57
2024/01/25 03:06:35;;;;;;;5.23;2.13;;;;;;;2.11;100.00;99239.09;5111782;28;20674;-57
2024/01/25 03:09:04;;;;;;;2.53;1.90;;;;;;;2.09;100.00;99252.63;5111850;28;20208;-57
2024/01/25 03:11:31;;;;;;;4.57;1.90;;;;;;;2.07;100.00;99240.09;5111827;28;20310;-57
2024/01/25 03:13:59;;;;;;;3.83;2.10;;;;;;;2.12;100.00;99242.44;5111982;28;20197;-58
2024/01/25 03:16:26;;;;;;;3.77;1.73;;;;;;;2.00;100.00;99249.56;5111510;28;20609;-57
2024/01/25 03:18:53;;;;;;;4.33;2.00;;;;;;;1.92;100.00;99241.47;5111616;27;20216;-58
2024/01/25 03:21:20;;;;;;;2.70;2.13;;;;;;;1.90;100.00;99243.19;5111501;28;20693;-58
2024/01/25 03:23:47;;;;;;;2.17;1.70;;;;;;;1.96;100.00;99240.47;5110874;28;20209;-58
2024/01/25 03:26:13;;;;;;;2.47;2.23;;;;;;;1.99;100.00;99237.84;5111432;28;20197;-58
2024/01/25 03:28:40;;;;;;;2.63;2.00;;;;;;;2.06;100.00;99235.09;5111210;28;20599;-57
2024/01/25 03:31:08;;;;;;;6.53;2.20;;;;;;;2.16;100.00;99244.00;5111337;28;20197;-57
2024/01/25 03:33:35;;;;;;;2.33;1.63;;;;;;;2.25;100.00;99243.66;5111300;28;20205;-57
2024/01/25 03:36:03;;;;;;;2.77;1.63;;;;;;;2.31;100.00;99243.44;5111328;28;20229;-58
2024/01/25 03:38:30;;;;;;;2.83;2.07;;;;;;;2.26;100.00;99255.38;5111131;28;20774;-58
2024/01/25 03:40:58;;;;;;;2.10;1.67;;;;;;;2.36;100.00;99255.91;5111182;27;20592;-57
2024/01/25 03:43:25;;;;;;;2.70;1.70;;;;;;;2.42;100.00;99243.88;5111692;28;20312;-57
2024/01/25 03:45:52;;;;;;;2.80;2.00;;;;;;;2.49;100.00;99247.81;5111061;27;20215;-57
2024/01/25 03:48:21;;;;;;;3.20;1.63;;;;;;;2.60;100.00;99242.38;5111070;28;20213;-58
2024/01/25 03:50:48;;;;;;;3.00;1.80;;;;;;;2.68;100.00;99237.06;5111124;28;20212;-57
2024/01/25 03:53:15;;;;;;;2.60;1.50;;;;;;;2.81;100.00;99248.31;5111133;28;20197;-58
2024/01/25 03:55:42;;;;;;;1.97;1.23;;;;;;;2.92;100.00;99248.72;5110777;28;20241;-58
2024/01/25 03:58:09;;;;;;;2.27;1.83;;;;;;;2.97;100.00;99248.56;5110795;28;20958;-58
2024/01/25 04:00:36;;;;;;;1.70;1.23;;;;;;;2.99;100.00;99256.06;5110723;28;20690;-57
2024/01/25 04:03:03;;;;;;;1.33;1.23;;;;;;;2.97;100.00;99255.28;5110561;28;20197;-58
2024/01/25 04:05:31;;;;;;;5.27;1.87;;;;;;;2.93;100.00;99252.88;5110753;28;20681;-57
2024/01/25 04:07:58;;;;;;;1.67;1.30;;;;;;;2.93;100.00;99252.88;5110891;28;20208;-58
2024/01/25 04:10:25;;;;;;;3.23;1.20;;;;;;;3.06;100.00;99257.50;5110806;28;20197;-58
2024/01/25 04:12:52;;;;;;;1.50;1.00;;;;;;;3.05;100.00;99255.81;5110979;27;20567;-58
2024/01/25 04:15:19;;;;;;;1.40;0.97;;;;;;;3.13;100.00;99263.94;5110376;28;20244;-58
2024/01/25 04:17:46;;;;;;;1.17;1.10;;;;;;;3.14;100.00;99263.03;5110498;28;20189;-58
2024/01/25 04:20:13;;;;;;;2.17;1.00;;;;;;;3.16;100.00;99258.75;5110404;28;20690;-58
2024/01/25 04:22:41;;;;;;;2.97;1.40;;;;;;;3.13;100.00;99279.09;5110245;28;20197;-58
2024/01/25 04:25:09;;;;;;;1.40;1.30;;;;;;;3.32;100.00;99276.69;5110260;28;20201;-58
2024/01/25 04:27:37;;;;;;;4.20;1.27;;;;;;;3.36;100.00;99279.00;5110113;28;20216;-58
2024/01/25 04:30:05;;;;;;;1.67;1.00;;;;;;;3.35;100.00;99284.97;5110083;28;20201;-58
2024/01/25 04:32:32;;;;;;;1.13;1.03;;;;;;;3.35;100.00;99289.19;5110285;28;20204;-58
2024/01/25 04:34:59;;;;;;;0.70;0.70;;;;;;;3.39;100.00;99301.63;5109620;28;20200;-58
2024/01/25 04:37:25;;;;;;;2.13;1.20;;;;;;;3.40;100.00;99298.25;5109635;28;20237;-57
2024/01/25 04:39:53;;;;;;;1.77;1.53;;;;;;;3.40;100.00;99293.19;5109906;28;20227;-57
2024/01/25 04:42:20;;;;;;;3.50;2.27;;;;;;;3.42;100.00;99299.88;5110244;28;20205;-58
2024/01/25 04:44:47;;;;;;;1.83;1.27;;;;;;;3.44;100.00;99313.28;5110018;28;20201;-57
2024/01/25 04:47:14;;;;;;;1.37;0.77;;;;;;;3.38;100.00;99305.06;5109858;28;20220;-58
2024/01/25 04:49:41;;;;;;;1.40;0.60;;;;;;;3.45;100.00;99309.88;5109757;28;20204;-57
2024/01/25 04:52:08;;;;;;;1.30;0.90;;;;;;;3.42;100.00;99310.00;5109880;28;20666;-57
2024/01/25 04:54:35;;;;;;;2.30;1.00;;;;;;;3.45;100.00;99309.88;5109810;28;20201;-57
2024/01/25 04:57:06;;;;;;;2.53;1.43;;;;;;;3.39;100.00;99306.69;5109551;28;20233;-58
2024/01/25 04:59:33;;;;;;;1.47;1.17;;;;;;;3.42;100.00;99310.00;5109665;28;20251;-57
2024/01/25 05:02:00;;;;;;;0.93;0.93;;;;;;;3.36;100.00;99309.34;5109599;28;20193;-58
2024/01/25 05:04:27;;;;;;;1.87;1.13;;;;;;;3.32;100.00;99315.41;5109685;28;20204;-58
2024/01/25 05:06:54;;;;;;;0.93;0.90;;;;;;;3.30;100.00;99326.44;5109762;28;20197;-57
2024/01/25 05:09:21;;;;;;;1.87;1.23;;;;;;;3.33;100.00;99316.22;5109744;28;20201;-57
2024/01/25 05:11:48;;;;;;;1.13;1.03;;;;;;;3.31;100.00;99313.75;5109382;28;20245;-57
2024/01/25 05:14:16;;;;;;;0.87;0.70;;;;;;;3.36;100.00;99321.97;5109443;28;20656;-58
2024/01/25 05:16:43;;;;;;;1.70;0.57;;;;;;;3.31;100.00;99331.44;5109327;28;20710;-57
2024/01/25 05:19:10;;;;;;;1.13;1.03;;;;;;;3.29;100.00;99330.69;5109577;28;20592;-58
2024/01/25 05:21:36;;;;;;;0.63;0.63;;;;;;;3.32;100.00;99330.56;5109355;28;20202;-58
2024/01/25 05:24:04;;;;;;;1.60;1.10;;;;;;;3.27;100.00;99337.50;5109214;28;20197;-58
2024/01/25 05:26:30;;;;;;;0.63;0.63;;;;;;;3.22;100.00;99338.56;5109134;28;20217;-57
2024/01/25 05:28:57;;;;;;;2.53;1.17;;;;;;;3.20;100.00;99346.22;5109502;28;20197;-58
2024/01/25 05:31:25;;;;;;;1.03;0.83;;;;;;;3.20;100.00;99348.72;5109600;28;20205;-58
2024/01/25 05:33:52;;;;;;;0.77;0.43;;;;;;;3.15;100.00;99355.66;5109116;28;20201;-58
2024/01/25 05:36:19;;;;;;;0.97;0.93;;;;;;;3.12;100.00;99363.34;5108940;27;20249;-58
2024/01/25 05:38:46;;;;;;;4.00;1.63;;;;;;;3.08;100.00;99361.81;5109060;28;20193;-58
2024/01/25 05:41:13;;;;;;;1.37;1.23;;;;;;;3.10;100.00;99367.63;5108905;28;20212;-58
2024/01/25 05:43:40;;;;;;;0.67;0.67;;;;;;;3.08;100.00;99366.84;5109176;28;20205;-58
2024/01/25 05:46:07;;;;;;;1.23;1.00;;;;;;;3.09;100.00;99371.03;5109151;28;20205;-58
2024/01/25 05:48:35;;;;;;;0.60;0.60;;;;;;;3.12;100.00;99366.69;5108722;28;20201;-58
2024/01/25 05:51:01;;;;;;;1.40;0.67;;;;;;;3.16;100.00;99360.63;5109069;28;20204;-58
2024/01/25 05:53:28;;;;;;;1.37;1.23;;;;;;;3.17;100.00;99374.94;5108980;28;20194;-58
2024/01/25 05:55:55;;;;;;;2.03;1.30;;;;;;;3.20;100.00;99376.53;5108763;28;20232;-58
2024/01/25 05:58:22;;;;;;;1.37;1.20;;;;;;;3.23;100.00;99375.56;5109139;28;20231;-59
2024/01/25 06:00:49;;;;;;;1.80;1.00;;;;;;;3.24;100.00;99373.00;5108962;28;20205;-59
2024/01/25 06:03:15;;;;;;;0.73;0.50;;;;;;;3.32;100.00;99370.19;5108774;28;20697;-58
2024/01/25 06:05:44;;;;;;;1.10;0.90;;;;;;;3.30;100.00;99382.03;5109268;28;20634;-58
2024/01/25 06:08:10;;;;;;;2.77;0.90;;;;;;;3.32;100.00;99376.06;5108722;28;20197;-58
2024/01/25 06:10:37;;;;;;;1.10;1.00;;;;;;;3.32;100.00;99380.28;5108964;28;20228;-58
2024/01/25 06:13:04;;;;;;;0.47;0.47;;;;;;;3.33;100.00;99381.94;5108732;28;20206;-58
2024/01/25 06:15:31;;;;;;;1.40;1.17;;;;;;;3.33;100.00;99372.63;5108646;28;20197;-58
2024/01/25 06:17:58;;;;;;;0.87;0.50;;;;;;;3.33;100.00;99382.75;5108890;28;20366;-58
2024/01/25 06:20:25;;;;;;;0.43;0.43;;;;;;;3.40;100.00;99376.59;5108795;28;20197;-58
2024/01/25 06:22:53;;;;;;;1.60;1.37;;;;;;;3.41;100.00;99374.88;5108550;28;20201;-58
2024/01/25 06:25:20;;;;;;;4.17;1.50;;;;;;;3.35;100.00;99381.00;5108567;28;20193;-58
2024/01/25 06:27:46;;;;;;;1.53;0.90;;;;;;;3.34;100.00;99374.28;5108542;28;20193;-58
2024/01/25 06:30:14;;;;;;;0.90;0.90;;;;;;;3.38;100.00;99375.81;5108494;28;20596;-58
2024/01/25 06:32:41;;;;;;;1.50;1.17;;;;;;;3.41;100.00;99379.94;5108459;28;20209;-58
2024/01/25 06:35:09;;;;;;;1.27;1.10;;;;;;;3.46;100.00;99383.13;5108446;28;20283;-58
2024/01/25 06:37:36;;;;;;;3.07;1.60;;;;;;;3.46;100.00;99377.22;5108313;28;20649;-58
2024/01/25 06:40:05;;;;;;;1.13;0.90;;;;;;;3.47;100.00;99383.94;5108205;28;20247;-58
2024/01/25 06:42:32;;;;;;;0.40;0.40;;;;;;;3.48;100.00;99375.47;5108368;28;20197;-58
2024/01/25 06:44:59;;;;;;;1.10;0.70;;;;;;;3.43;100.00;99384.91;5108481;28;20208;-58
2024/01/25 06:47:26;;;;;;;1.20;0.80;;;;;;;3.39;100.00;99377.47;5108674;28;20197;-59
2024/01/25 06:49:52;;;;;;;1.70;0.87;;;;;;;3.43;100.00;99378.16;5108164;28;20205;-58
2024/01/25 06:52:19;;;;;;;0.57;0.57;;;;;;;3.45;100.00;99380.63;5108802;28;20678;-58
2024/01/25 06:54:46;;;;;;;1.93;1.17;;;;;;;3.54;100.00;99378.56;5108578;28;20225;-58
2024/01/25 06:57:15;;;;;;;1.07;0.97;;;;;;;3.59;100.00;99373.34;5108180;28;20232;-58
2024/01/25 06:59:41;;;;;;;2.67;1.70;;;;;;;3.60;100.00;99377.50;5110476;28;20654;-58
2024/01/25 07:02:08;;;;;;;4.93;1.67;;;;;;;3.61;100.00;99376.66;5111835;28;20197;-58
2024/01/25 07:04:35;;;;;;;0.93;0.90;;;;;;;3.64;100.00;99376.53;5112422;28;20197;-58
2024/01/25 07:07:02;;;;;;;1.27;1.17;;;;;;;3.73;100.00;99375.34;5112148;28;20201;-58
2024/01/25 07:09:29;;;;;;;1.37;1.10;;;;;;;3.73;100.00;99380.41;5111929;28;20232;-58
2024/01/25 07:11:56;;;;;;;2.13;0.70;;;;;;;3.75;100.00;99371.88;5111796;28;20209;-58
2024/01/25 07:14:24;;;;;;;0.90;0.90;;;;;;;3.70;100.00;99378.00;5111971;28;20209;-58
2024/01/25 07:16:51;;;;;;;3.13;1.77;;;;;;;3.72;100.00;99358.50;5111774;28;20677;-58
2024/01/25 07:19:18;;;;;;;0.83;0.83;;;;;;;3.78;100.00;99364.16;5112273;28;20190;-58
2024/01/25 07:21:46;;;;;;;0.53;0.53;;;;;;;3.80;100.00;99356.50;5111798;28;20202;-58
2024/01/25 07:24:12;;;;;;;1.10;0.93;;;;;;;3.83;100.00;99359.72;5111488;27;20554;-58
2024/01/25 07:26:39;;;;;;;5.43;1.47;;;;;;;3.89;100.00;99362.88;5111425;28;20677;-58
2024/01/25 07:29:06;;;;;;;1.93;1.20;;;;;;;3.93;100.00;99366.97;5111552;28;20232;-58
2024/01/25 07:31:34;;;;;;;4.60;2.10;;;;;;;4.02;100.00;99371.66;5111654;27;20201;-58
2024/01/25 07:34:01;;;;;;;1.50;1.40;;;;;;;4.05;100.00;99377.41;5111341;28;20594;-58
2024/01/25 07:36:28;;;;;;;1.80;1.33;;;;;;;4.13;100.00;99374.56;5111616;28;20236;-58
2024/01/25 07:38:54;;;;;;;0.83;0.77;;;;;;;4.20;100.00;99370.06;5111395;28;20193;-58
2024/01/25 07:41:21;;;;;;;1.30;0.90;;;;;;;4.18;100.00;99380.22;5111122;28;20740;-58
2024/01/25 07:43:48;;;;;;;1.47;1.00;;;;;;;4.29;100.00;99380.59;5111179;28;20386;-58
2024/01/25 07:46:15;;;;;;;5.70;2.03;;;;;;;4.29;100.00;99390.72;5111270;28;20201;-59
2024/01/25 07:48:44;;;;;;;2.63;2.10;;;;;;;4.29;100.00;99385.69;5111100;28;20254;-59
2024/01/25 07:51:14;;;;;;;2.37;1.60;;;;;;;4.32;100.00;99390.59;5110746;28;20205;-58
2024/01/25 07:53:40;;;;;;;1.30;1.20;;;;;;;4.35;100.00;99393.91;5111028;28;20193;-58
2024/01/25 07:56:09;;;;;;;0.63;0.63;;;;;;;4.30;100.00;99392.41;5110826;28;20678;-59
2024/01/25 07:58:36;;;;;;;0.97;0.90;;;;;;;4.39;100.00;99390.34;5110909;27;20236;-58
2024/01/25 08:01:05;;;;;;;3.30;0.90;;;;;;;4.40;100.00;99397.06;5110798;28;20232;-59
2024/01/25 08:03:33;;;;;;;1.13;1.00;;;;;;;4.34;100.00;99402.41;5110714;28;20200;-58
2024/01/25 08:06:03;;;;;;;1.13;1.03;;;;;;;4.35;100.00;99394.72;5110910;28;20208;-58
2024/01/25 08:08:30;;;;;;;3.03;1.50;;;;;;;4.35;100.00;99396.44;5110755;28;20262;-58
2024/01/25 08:10:57;;;;;;;1.70;0.70;;;;;;;4.41;100.00;99398.72;5110522;28;20206;-58
2024/01/25 08:13:23;;;;;;;0.70;0.50;;;;;;;4.39;100.00;99395.41;5110640;28;20205;-58
2024/01/25 08:15:50;;;;;;;0.73;0.73;;;;;;;4.45;100.00;99400.22;5110444;28;20723;-58
2024/01/25 08:18:18;;;;;;;0.80;0.70;;;;;;;4.49;100.00;99400.03;5110300;28;20675;-58
2024/01/25 08:20:46;;;;;;;1.03;0.73;;;;;;;4.62;100.00;99407.09;5110421;28;20212;-59
2024/01/25 08:23:15;;;;;;;1.40;0.97;;;;;;;4.59;100.00;99397.91;5110595;28;20208;-58
2024/01/25 08:25:42;;;;;;;1.27;1.10;;;;;;;4.72;100.00;99396.53;5110355;28;20225;-59
2024/01/25 08:28:09;;;;;;;0.57;0.57;;;;;;;4.71;100.00;99397.41;5110396;28;20202;-58
2024/01/25 08:30:35;;;;;;;0.43;0.43;;;;;;;4.84;100.00;99407.00;5110491;28;20205;-59
2024/01/25 08:33:03;;;;;;;1.03;0.93;;;;;;;4.78;100.00;99402.22;5110249;28;20197;-59
2024/01/25 08:35:30;;;;;;;0.50;0.40;;;;;;;4.72;100.00;99393.16;5110164;28;20197;-58
2024/01/25 08:37:57;;;;;;;0.80;0.80;;;;;;;4.82;100.00;99396.13;5110195;28;20244;-59
2024/01/25 08:40:25;;;;;;;3.27;1.40;;;;;;;4.80;100.00;99401.25;5109952;28;20670;-59
2024/01/25 08:42:52;;;;;;;1.07;1.00;;;;;;;4.84;100.00;99392.63;5109833;28;20212;-59
2024/01/25 08:45:19;;;;;;;4.43;1.10;;;;;;;5.03;100.00;99394.34;5110129;28;20201;-59
2024/01/25 08:47:46;;;;;;;0.87;0.87;;;;;;;5.26;100.00;99399.19;5109842;28;20663;-59
2024/01/25 08:50:13;;;;;;;2.80;1.00;;;;;;;5.64;100.00;99401.69;5109896;28;20201;-59
2024/01/25 08:52:40;;;;;;;1.83;0.90;;;;;;;5.89;100.00;99403.88;5109786;28;20231;-59
2024/01/25 08:55:09;;;;;;;3.10;1.33;;;;;;;6.01;100.00;99405.84;5109995;28;20197;-59
2024/01/25 08:57:37;;;;;;;0.73;0.73;;;;;;;6.09;100.00;99413.94;5109985;28;20228;-59
2024/01/25 09:00:10;;;;;;;5.53;1.77;;;;;;;6.23;100.00;99414.97;5109900;28;20205;-59
2024/01/25 09:02:37;;;;;;;3.03;1.43;;;;;;;6.27;100.00;99411.38;5109522;28;20268;-60
2024/01/25 09:05:04;;;;;;;2.57;1.23;;;;;;;6.53;100.00;99410.91;5109715;28;20206;-59
2024/01/25 09:07:31;;;;;;;2.20;1.50;;;;;;;6.45;100.00;99405.38;5109407;28;20225;-59
2024/01/25 09:09:58;;;;;;;3.07;1.73;;;;;;;6.55;100.00;99403.22;5109831;28;20218;-59
2024/01/25 09:12:25;;;;;;;1.77;1.37;;;;;;;6.46;100.00;99399.44;5109575;28;20197;-59
2024/01/25 09:14:53;;;;;;;4.27;1.87;;;;;;;6.43;100.00;99403.81;5109502;28;20218;-59
2024/01/25 09:17:22;;;;;;;4.13;2.27;;;;;;;6.43;100.00;99404.66;5109172;28;20618;-59
2024/01/25 09:19:49;;;;;;;1.10;1.00;;;;;;;6.24;100.00;99404.75;5109371;28;20266;-59
2024/01/25 09:22:17;;;;;;;1.73;1.47;;;;;;;6.43;100.00;99409.75;5109332;28;20266;-59
2024/01/25 09:24:44;;;;;;;2.40;1.20;;;;;;;6.66;100.00;99410.28;5109452;27;20208;-59
2024/01/25 09:27:11;;;;;;;1.83;1.43;;;;;;;6.81;100.00;99409.50;5109340;28;20208;-59
2024/01/25 09:29:39;;;;;;;5.47;1.60;;;;;;;6.87;100.00;99405.84;5109439;28;20254;-58
2024/01/25 09:32:08;;;;;;;1.60;1.43;;;;;;;6.53;100.00;99405.81;5109312;28;20197;-59
2024/01/25 09:34:35;;;;;;;1.40;1.13;;;;;;;6.38;100.00;99400.72;5109205;28;20205;-59
2024/01/25 09:37:02;;;;;;;2.17;1.50;;;;;;;6.26;100.00;99387.72;5108827;28;20247;-59
2024/01/25 09:39:29;;;;;;;4.00;1.40;;;;;;;6.10;100.00;99377.47;5109157;28;20587;-59
2024/01/25 09:41:56;;;;;;;1.47;1.13;;;;;;;6.10;100.00;99374.94;5109091;28;20271;-59
2024/01/25 09:44:22;;;;;;;6.30;1.77;;;;;;;6.10;100.00;99382.56;5108882;28;20590;-59
2024/01/25 09:46:49;;;;;;;2.90;1.20;;;;;;;5.99;100.00;99384.81;5109196;28;20204;-58
2024/01/25 09:49:17;;;;;;;3.50;1.93;;;;;;;5.93;100.00;99384.25;5109113;28;20204;-59
2024/01/25 09:51:45;;;;;;;4.17;2.10;;;;;;;6.07;100.00;99372.56;5108997;28;20212;-58
2024/01/25 09:54:13;;;;;;;5.60;1.57;;;;;;;6.02;100.00;99368.59;5108883;28;20201;-59
2024/01/25 09:56:42;;;;;;;2.63;1.50;;;;;;;6.03;100.00;99366.00;5109078;28;20216;-59
2024/01/25 09:59:10;;;;;;;1.83;1.23;;;;;;;6.15;100.00;99379.00;5108916;28;20235;-59
2024/01/25 10:01:37;;;;;;;6.97;1.20;;;;;;;6.25;100.00;99373.38;5108837;28;20300;-59
2024/01/25 10:04:08;;;;;;;1.30;1.20;;;;;;;6.19;100.00;99376.22;5108961;28;20212;-59
2024/01/25 10:06:36;;;;;;;3.93;1.67;;;;;;;6.30;100.00;99370.59;5108786;28;20229;-59
2024/01/25 10:09:09;;;;;;;3.50;1.73;;;;;;;6.32;100.00;99371.34;5108872;28;20283;-58
2024/01/25 10:11:37;;;;;;;3.67;1.50;;;;;;;6.50;100.00;99367.88;5108668;28;20197;-59
2024/01/25 10:14:04;;;;;;;2.20;1.47;;;;;;;6.64;100.00;99372.25;5108715;28;20666;-58
2024/01/25 10:16:31;;;;;;;2.60;1.43;;;;;;;6.63;100.00;99362.16;5108629;28;20207;-59
2024/01/25 10:18:58;;;;;;;3.53;1.60;;;;;;;6.49;100.00;99363.72;5108767;28;20361;-58
2024/01/25 10:21:27;;;;;;;2.30;1.57;;;;;;;6.38;100.00;99357.53;5108809;28;20197;-59
2024/01/25 10:23:58;;;;;;;3.30;1.10;;;;;;;6.40;100.00;99354.03;5108946;28;20199;-59
2024/01/25 10:26:28;;;;;;;7.53;2.20;;;;;;;6.52;100.00;99353.38;5108615;28;20198;-58
2024/01/25 10:28:55;;;;;;;1.30;1.20;;;;;;;6.39;100.00;99347.28;5108891;28;20226;-59
2024/01/25 10:31:25;;;;;;;6.43;1.80;;;;;;;6.35;100.00;99341.53;5108630;28;20757;-59
2024/01/25 10:33:54;;;;;;;2.33;1.77;;;;;;;6.50;100.00;99334.84;5110805;28;20282;-58
2024/01/25 10:36:22;;;;;;;2.57;1.40;;;;;;;6.70;100.00;99330.47;5112421;28;20201;-59
2024/01/25 10:38:49;;;;;;;7.77;1.97;;;;;;;6.83;100.00;99331.44;5112293;28;20732;-58
2024/01/25 10:41:20;;;;;;;2.87;1.93;;;;;;;6.79;100.00;99319.81;5112296;28;20229;-58
2024/01/25 10:43:47;;;;;;;2.53;1.90;;;;;;;6.83;100.00;99321.28;5112525;28;20193;-58
2024/01/25 10:46:14;;;;;;;3.97;2.00;;;;;;;7.05;100.00;99315.88;5112344;28;20201;-58
2024/01/25 10:48:42;;;;;;;4.97;1.23;;;;;;;7.42;100.00;99314.69;5112558;28;20633;-58
2024/01/25 10:51:10;;;;;;;4.70;1.60;;;;;;;7.61;100.00;99308.56;5111951;28;20205;-59
2024/01/25 10:53:39;;;;;;;4.43;1.93;;;;;;;7.76;100.00;99297.50;5112267;28;20193;-59
2024/01/25 10:56:06;;;;;;;2.57;1.90;;;;;;;7.90;100.00;99289.91;5112018;27;20588;-59
2024/01/25 10:58:36;;;;;;;1.50;1.27;;;;;;;7.66;100.00;99286.22;5112049;28;20236;-59
2024/01/25 11:01:03;;;;;;;3.40;1.97;;;;;;;7.98;100.00;99275.91;5111946;28;20193;-59
2024/01/25 11:03:31;;;;;;;3.63;1.50;;;;;;;7.95;100.00;99276.91;5112335;28;20197;-59
2024/01/25 11:06:08;;;;;;;3.83;2.03;;;;;;;7.99;99.53;99272.47;5111902;28;20201;-59
2024/01/25 11:08:37;;;;;;;3.70;1.47;;;;;;;7.72;100.00;99270.59;5112183;28;20747;-59
2024/01/25 11:11:06;;;;;;;3.93;1.33;;;;;;;7.84;99.69;99287.72;5112370;28;20209;-59
2024/01/25 11:13:34;;;;;;;4.30;1.93;;;;;;;7.58;100.00;99284.13;5111862;27;20197;-59
2024/01/25 11:16:13;;;;;;;15.20;1.60;;;;;;;7.69;100.00;99291.16;5111988;28;20205;-59
2024/01/25 11:18:49;;;;;;;2.83;1.53;;;;;;;7.83;100.00;99278.44;5111544;28;20726;-59
2024/01/25 11:21:24;;;;;;;2.93;1.30;;;;;;;7.49;100.00;99274.47;5111871;27;20181;-59
2024/01/25 11:24:00;;;;;;;3.60;1.73;;;;;;;7.30;100.00;99274.69;5111743;27;20269;-59
2024/01/25 11:26:27;;;;;;;1.73;1.23;;;;;;;7.23;100.00;99270.84;5111749;28;20220;-59
2024/01/25 11:28:55;;;;;;;5.77;1.87;;;;;;;6.92;100.00;99264.91;5111470;28;20220;-59
2024/01/25 11:31:23;;;;;;;3.43;1.53;;;;;;;6.78;100.00;99257.22;5111420;28;20208;-59
2024/01/25 11:33:51;;;;;;;3.73;1.37;;;;;;;6.76;100.00;99259.00;5111322;27;20656;-59
2024/01/25 11:36:22;;;;;;;2.93;1.93;;;;;;;6.62;100.00;99261.47;5111558;28;20194;-59